sensor_id;sensor_type;location;lat;lon;timestamp;temperature;humidity
18321;DHT22;54904;54.350;18.664;2022-09-25T00:00:55;15.10;97.80
18321;DHT22;54904;54.350;18.664;2022-09-25T00:03:25;15.10;97.80
18321;DHT22;54904;54.350;18.664;2022-09-25T00:05:58;15.10;97.80
18321;DHT22;54904;54.350;18.664;2022-09-25T00:08:26;15.10;97.80
18321;DHT22;54904;54.350;18.664;2022-09-25T00:10:53;15.10;98.10
18321;DHT22;54904;54.350;18.664;2022-09-25T00:13:20;15.10;97.80
18321;DHT22;54904;54.350;18.664;2022-09-25T00:15:49;15.00;97.80
18321;DHT22;54904;54.350;18.664;2022-09-25T00:18:17;15.00;97.90
18321;DHT22;54904;54.350;18.664;2022-09-25T00:21:08;15.00;98.00
18321;DHT22;54904;54.350;18.664;2022-09-25T00:23:34;14.90;98.00
18321;DHT22;54904;54.350;18.664;2022-09-25T00:26:03;15.00;98.00
18321;DHT22;54904;54.350;18.664;2022-09-25T00:28:33;14.90;97.90
18321;DHT22;54904;54.350;18.664;2022-09-25T00:31:01;14.90;98.00
18321;DHT22;54904;54.350;18.664;2022-09-25T00:33:28;14.90;98.00
18321;DHT22;54904;54.350;18.664;2022-09-25T00:35:55;14.90;98.00
18321;DHT22;54904;54.350;18.664;2022-09-25T00:38:28;14.90;98.10
18321;DHT22;54904;54.350;18.664;2022-09-25T00:40:56;15.00;98.10
18321;DHT22;54904;54.350;18.664;2022-09-25T00:43:35;14.90;98.10
18321;DHT22;54904;54.350;18.664;2022-09-25T00:46:08;15.00;98.10
18321;DHT22;54904;54.350;18.664;2022-09-25T00:48:37;15.00;98.10
18321;DHT22;54904;54.350;18.664;2022-09-25T00:51:06;15.00;98.10
18321;DHT22;54904;54.350;18.664;2022-09-25T00:53:37;14.90;98.10
18321;DHT22;54904;54.350;18.664;2022-09-25T00:56:06;14.90;98.10
18321;DHT22;54904;54.350;18.664;2022-09-25T00:58:36;15.00;98.20
18321;DHT22;54904;54.350;18.664;2022-09-25T01:01:03;15.00;98.20
18321;DHT22;54904;54.350;18.664;2022-09-25T01:03:31;15.00;98.20
18321;DHT22;54904;54.350;18.664;2022-09-25T01:06:00;14.90;98.30
18321;DHT22;54904;54.350;18.664;2022-09-25T01:08:28;14.90;98.40
18321;DHT22;54904;54.350;18.664;2022-09-25T01:10:57;14.90;98.40
18321;DHT22;54904;54.350;18.664;2022-09-25T01:13:25;14.90;98.50
18321;DHT22;54904;54.350;18.664;2022-09-25T01:16:01;14.90;98.50
18321;DHT22;54904;54.350;18.664;2022-09-25T01:18:48;15.00;98.60
18321;DHT22;54904;54.350;18.664;2022-09-25T01:21:23;15.00;98.60
18321;DHT22;54904;54.350;18.664;2022-09-25T01:24:29;14.90;98.60
18321;DHT22;54904;54.350;18.664;2022-09-25T01:27:38;14.90;98.60
18321;DHT22;54904;54.350;18.664;2022-09-25T01:30:10;14.90;98.80
18321;DHT22;54904;54.350;18.664;2022-09-25T01:35:39;14.80;98.90
18321;DHT22;54904;54.350;18.664;2022-09-25T01:38:15;14.80;98.90
18321;DHT22;54904;54.350;18.664;2022-09-25T01:40:46;14.80;99.00
18321;DHT22;54904;54.350;18.664;2022-09-25T01:43:17;14.80;99.00
18321;DHT22;54904;54.350;18.664;2022-09-25T01:45:52;14.80;99.10
18321;DHT22;54904;54.350;18.664;2022-09-25T01:48:23;14.80;99.20
18321;DHT22;54904;54.350;18.664;2022-09-25T01:50:55;14.80;99.30
18321;DHT22;54904;54.350;18.664;2022-09-25T01:53:25;14.80;99.20
18321;DHT22;54904;54.350;18.664;2022-09-25T01:55:56;14.80;99.30
18321;DHT22;54904;54.350;18.664;2022-09-25T01:58:27;14.80;99.30
18321;DHT22;54904;54.350;18.664;2022-09-25T02:01:00;14.80;99.40
18321;DHT22;54904;54.350;18.664;2022-09-25T02:03:33;14.70;99.50
18321;DHT22;54904;54.350;18.664;2022-09-25T02:06:04;14.70;99.60
18321;DHT22;54904;54.350;18.664;2022-09-25T02:08:37;14.70;99.60
18321;DHT22;54904;54.350;18.664;2022-09-25T02:11:06;14.70;99.60
18321;DHT22;54904;54.350;18.664;2022-09-25T02:13:37;14.70;99.70
18321;DHT22;54904;54.350;18.664;2022-09-25T02:16:09;14.70;99.70
18321;DHT22;54904;54.350;18.664;2022-09-25T02:18:37;14.70;99.70
18321;DHT22;54904;54.350;18.664;2022-09-25T02:21:27;14.70;99.70
18321;DHT22;54904;54.350;18.664;2022-09-25T02:24:01;14.70;99.80
18321;DHT22;54904;54.350;18.664;2022-09-25T02:26:32;14.70;99.80
18321;DHT22;54904;54.350;18.664;2022-09-25T02:29:02;14.70;99.80
18321;DHT22;54904;54.350;18.664;2022-09-25T02:31:34;14.70;99.70
18321;DHT22;54904;54.350;18.664;2022-09-25T02:34:03;14.70;99.70
18321;DHT22;54904;54.350;18.664;2022-09-25T02:36:30;14.70;99.80
18321;DHT22;54904;54.350;18.664;2022-09-25T02:38:59;14.70;99.90
18321;DHT22;54904;54.350;18.664;2022-09-25T02:41:43;14.70;99.90
18321;DHT22;54904;54.350;18.664;2022-09-25T02:44:18;14.70;99.90
18321;DHT22;54904;54.350;18.664;2022-09-25T02:47:01;14.70;99.80
18321;DHT22;54904;54.350;18.664;2022-09-25T02:49:39;14.80;99.80
18321;DHT22;54904;54.350;18.664;2022-09-25T02:52:10;14.70;99.80
18321;DHT22;54904;54.350;18.664;2022-09-25T02:54:44;14.70;99.90
18321;DHT22;54904;54.350;18.664;2022-09-25T02:57:22;14.70;99.90
18321;DHT22;54904;54.350;18.664;2022-09-25T02:59:55;14.70;99.90
18321;DHT22;54904;54.350;18.664;2022-09-25T03:02:26;14.70;99.90
18321;DHT22;54904;54.350;18.664;2022-09-25T03:04:54;14.70;99.90
18321;DHT22;54904;54.350;18.664;2022-09-25T03:07:22;14.70;99.90
18321;DHT22;54904;54.350;18.664;2022-09-25T03:09:51;14.60;99.90
18321;DHT22;54904;54.350;18.664;2022-09-25T03:12:19;14.60;99.90
18321;DHT22;54904;54.350;18.664;2022-09-25T03:14:46;14.60;99.90
18321;DHT22;54904;54.350;18.664;2022-09-25T03:17:13;14.60;99.90
18321;DHT22;54904;54.350;18.664;2022-09-25T03:19:43;14.60;99.90
18321;DHT22;54904;54.350;18.664;2022-09-25T03:22:10;14.60;99.90
18321;DHT22;54904;54.350;18.664;2022-09-25T03:24:37;14.60;99.90
18321;DHT22;54904;54.350;18.664;2022-09-25T03:27:04;14.60;99.90
18321;DHT22;54904;54.350;18.664;2022-09-25T03:29:31;14.60;99.90
18321;DHT22;54904;54.350;18.664;2022-09-25T03:31:58;14.50;99.90
18321;DHT22;54904;54.350;18.664;2022-09-25T03:34:25;14.50;99.90
18321;DHT22;54904;54.350;18.664;2022-09-25T03:36:53;14.50;99.90
18321;DHT22;54904;54.350;18.664;2022-09-25T03:39:21;14.60;99.90
18321;DHT22;54904;54.350;18.664;2022-09-25T03:41:48;14.50;99.90
18321;DHT22;54904;54.350;18.664;2022-09-25T03:44:15;14.50;99.90
18321;DHT22;54904;54.350;18.664;2022-09-25T03:46:42;14.50;99.90
18321;DHT22;54904;54.350;18.664;2022-09-25T03:49:09;14.50;99.90
18321;DHT22;54904;54.350;18.664;2022-09-25T03:51:37;14.50;99.90
18321;DHT22;54904;54.350;18.664;2022-09-25T03:54:08;14.50;99.90
18321;DHT22;54904;54.350;18.664;2022-09-25T03:56:35;14.50;99.90
18321;DHT22;54904;54.350;18.664;2022-09-25T03:59:02;14.50;99.90
18321;DHT22;54904;54.350;18.664;2022-09-25T04:01:29;14.50;99.90
18321;DHT22;54904;54.350;18.664;2022-09-25T04:03:56;14.50;99.90
18321;DHT22;54904;54.350;18.664;2022-09-25T04:06:25;14.50;99.90
18321;DHT22;54904;54.350;18.664;2022-09-25T04:08:52;14.50;99.90
18321;DHT22;54904;54.350;18.664;2022-09-25T04:11:22;14.50;99.90
18321;DHT22;54904;54.350;18.664;2022-09-25T04:13:50;14.50;99.90
18321;DHT22;54904;54.350;18.664;2022-09-25T04:16:17;14.50;99.90
18321;DHT22;54904;54.350;18.664;2022-09-25T04:18:45;14.50;99.90
18321;DHT22;54904;54.350;18.664;2022-09-25T04:21:13;14.50;99.90
18321;DHT22;54904;54.350;18.664;2022-09-25T04:23:41;14.50;99.90
18321;DHT22;54904;54.350;18.664;2022-09-25T04:26:30;14.50;99.90
18321;DHT22;54904;54.350;18.664;2022-09-25T04:28:57;14.50;99.90
18321;DHT22;54904;54.350;18.664;2022-09-25T04:31:26;14.40;99.90
18321;DHT22;54904;54.350;18.664;2022-09-25T04:33:53;14.50;99.90
18321;DHT22;54904;54.350;18.664;2022-09-25T04:36:19;14.50;99.90
18321;DHT22;54904;54.350;18.664;2022-09-25T04:38:46;14.50;99.90
18321;DHT22;54904;54.350;18.664;2022-09-25T04:41:14;14.50;99.90
18321;DHT22;54904;54.350;18.664;2022-09-25T04:43:43;14.50;99.90
18321;DHT22;54904;54.350;18.664;2022-09-25T04:46:12;14.60;99.90
18321;DHT22;54904;54.350;18.664;2022-09-25T04:48:43;14.60;99.90
18321;DHT22;54904;54.350;18.664;2022-09-25T04:51:10;14.60;99.90
18321;DHT22;54904;54.350;18.664;2022-09-25T04:53:37;14.60;99.90
18321;DHT22;54904;54.350;18.664;2022-09-25T04:56:06;14.60;99.90
18321;DHT22;54904;54.350;18.664;2022-09-25T04:58:34;14.60;99.90
18321;DHT22;54904;54.350;18.664;2022-09-25T05:01:05;14.60;99.90
18321;DHT22;54904;54.350;18.664;2022-09-25T05:03:33;14.60;99.90
18321;DHT22;54904;54.350;18.664;2022-09-25T05:06:00;14.60;99.90
18321;DHT22;54904;54.350;18.664;2022-09-25T05:08:27;14.60;99.90
18321;DHT22;54904;54.350;18.664;2022-09-25T05:10:54;14.60;99.90
18321;DHT22;54904;54.350;18.664;2022-09-25T05:13:22;14.60;99.90
18321;DHT22;54904;54.350;18.664;2022-09-25T05:15:49;14.60;99.90
18321;DHT22;54904;54.350;18.664;2022-09-25T05:18:19;14.60;99.90
18321;DHT22;54904;54.350;18.664;2022-09-25T05:20:46;14.60;99.90
18321;DHT22;54904;54.350;18.664;2022-09-25T05:23:13;14.60;99.90
18321;DHT22;54904;54.350;18.664;2022-09-25T05:25:40;14.60;99.90
18321;DHT22;54904;54.350;18.664;2022-09-25T05:28:08;14.60;99.90
18321;DHT22;54904;54.350;18.664;2022-09-25T05:30:37;14.60;99.90
18321;DHT22;54904;54.350;18.664;2022-09-25T05:33:04;14.60;99.90
18321;DHT22;54904;54.350;18.664;2022-09-25T05:35:32;14.60;99.90
18321;DHT22;54904;54.350;18.664;2022-09-25T05:38:00;14.60;99.90
18321;DHT22;54904;54.350;18.664;2022-09-25T05:40:27;14.60;99.90
18321;DHT22;54904;54.350;18.664;2022-09-25T05:42:54;14.60;99.90
18321;DHT22;54904;54.350;18.664;2022-09-25T05:45:22;14.60;99.90
18321;DHT22;54904;54.350;18.664;2022-09-25T05:47:58;14.60;99.90
18321;DHT22;54904;54.350;18.664;2022-09-25T05:50:26;14.60;99.90
18321;DHT22;54904;54.350;18.664;2022-09-25T05:52:56;14.60;99.90
18321;DHT22;54904;54.350;18.664;2022-09-25T05:55:23;14.60;99.90
18321;DHT22;54904;54.350;18.664;2022-09-25T05:57:50;14.60;99.90
18321;DHT22;54904;54.350;18.664;2022-09-25T06:00:17;14.70;99.90
18321;DHT22;54904;54.350;18.664;2022-09-25T06:02:44;14.70;99.90
18321;DHT22;54904;54.350;18.664;2022-09-25T06:05:11;14.70;99.90
18321;DHT22;54904;54.350;18.664;2022-09-25T06:07:38;14.70;99.90
18321;DHT22;54904;54.350;18.664;2022-09-25T06:10:08;14.70;99.90
18321;DHT22;54904;54.350;18.664;2022-09-25T06:12:35;14.70;99.90
18321;DHT22;54904;54.350;18.664;2022-09-25T06:15:03;14.70;99.90
18321;DHT22;54904;54.350;18.664;2022-09-25T06:17:30;14.70;99.90
18321;DHT22;54904;54.350;18.664;2022-09-25T06:19:57;14.70;99.90
18321;DHT22;54904;54.350;18.664;2022-09-25T06:22:24;14.70;99.90
18321;DHT22;54904;54.350;18.664;2022-09-25T06:24:51;14.70;99.90
18321;DHT22;54904;54.350;18.664;2022-09-25T06:27:19;14.70;99.90
18321;DHT22;54904;54.350;18.664;2022-09-25T06:29:46;14.70;99.90
18321;DHT22;54904;54.350;18.664;2022-09-25T06:32:15;14.70;99.90
18321;DHT22;54904;54.350;18.664;2022-09-25T06:34:42;14.70;99.90
18321;DHT22;54904;54.350;18.664;2022-09-25T06:37:09;14.70;99.90
18321;DHT22;54904;54.350;18.664;2022-09-25T06:39:36;14.70;99.90
18321;DHT22;54904;54.350;18.664;2022-09-25T06:42:04;14.70;99.90
18321;DHT22;54904;54.350;18.664;2022-09-25T06:44:32;14.70;99.90
18321;DHT22;54904;54.350;18.664;2022-09-25T06:46:59;14.70;99.90
18321;DHT22;54904;54.350;18.664;2022-09-25T06:49:26;14.70;99.90
18321;DHT22;54904;54.350;18.664;2022-09-25T06:51:53;14.70;99.90
18321;DHT22;54904;54.350;18.664;2022-09-25T06:54:20;14.80;99.90
18321;DHT22;54904;54.350;18.664;2022-09-25T06:56:48;14.80;99.90
18321;DHT22;54904;54.350;18.664;2022-09-25T06:59:15;14.80;99.90
18321;DHT22;54904;54.350;18.664;2022-09-25T07:01:43;14.80;99.90
18321;DHT22;54904;54.350;18.664;2022-09-25T07:04:11;14.90;99.90
18321;DHT22;54904;54.350;18.664;2022-09-25T07:06:38;14.90;99.90
18321;DHT22;54904;54.350;18.664;2022-09-25T07:09:05;14.90;99.90
18321;DHT22;54904;54.350;18.664;2022-09-25T07:11:32;15.00;99.90
18321;DHT22;54904;54.350;18.664;2022-09-25T07:14:00;15.00;99.90
18321;DHT22;54904;54.350;18.664;2022-09-25T07:16:28;15.00;99.90
18321;DHT22;54904;54.350;18.664;2022-09-25T07:18:57;15.00;99.90
18321;DHT22;54904;54.350;18.664;2022-09-25T07:21:25;15.00;99.90
18321;DHT22;54904;54.350;18.664;2022-09-25T07:23:55;15.00;99.90
18321;DHT22;54904;54.350;18.664;2022-09-25T07:26:25;15.00;99.90
18321;DHT22;54904;54.350;18.664;2022-09-25T07:28:54;15.00;99.90
18321;DHT22;54904;54.350;18.664;2022-09-25T07:31:23;15.00;99.90
18321;DHT22;54904;54.350;18.664;2022-09-25T07:33:51;15.00;99.90
18321;DHT22;54904;54.350;18.664;2022-09-25T07:36:20;15.10;99.90
18321;DHT22;54904;54.350;18.664;2022-09-25T07:38:50;15.10;99.90
18321;DHT22;54904;54.350;18.664;2022-09-25T07:41:18;15.10;99.90
18321;DHT22;54904;54.350;18.664;2022-09-25T07:43:50;15.10;99.90
18321;DHT22;54904;54.350;18.664;2022-09-25T07:46:17;15.10;99.90
18321;DHT22;54904;54.350;18.664;2022-09-25T07:48:47;15.20;99.90
18321;DHT22;54904;54.350;18.664;2022-09-25T07:51:14;15.20;99.90
18321;DHT22;54904;54.350;18.664;2022-09-25T07:53:43;15.20;99.90
18321;DHT22;54904;54.350;18.664;2022-09-25T07:56:10;15.20;99.90
18321;DHT22;54904;54.350;18.664;2022-09-25T07:58:38;15.30;99.90
18321;DHT22;54904;54.350;18.664;2022-09-25T08:01:06;15.30;99.90
18321;DHT22;54904;54.350;18.664;2022-09-25T08:03:34;15.40;99.90
18321;DHT22;54904;54.350;18.664;2022-09-25T08:06:02;15.40;99.90
18321;DHT22;54904;54.350;18.664;2022-09-25T08:08:30;15.50;99.90
18321;DHT22;54904;54.350;18.664;2022-09-25T08:11:00;15.70;99.90
18321;DHT22;54904;54.350;18.664;2022-09-25T08:13:29;15.80;99.90
18321;DHT22;54904;54.350;18.664;2022-09-25T08:15:57;15.90;99.90
18321;DHT22;54904;54.350;18.664;2022-09-25T08:18:24;16.00;99.90
18321;DHT22;54904;54.350;18.664;2022-09-25T08:20:51;16.00;99.90
18321;DHT22;54904;54.350;18.664;2022-09-25T08:23:18;15.90;99.90
18321;DHT22;54904;54.350;18.664;2022-09-25T08:25:46;15.90;99.90
18321;DHT22;54904;54.350;18.664;2022-09-25T08:28:15;15.90;99.90
18321;DHT22;54904;54.350;18.664;2022-09-25T08:30:42;15.90;99.90
18321;DHT22;54904;54.350;18.664;2022-09-25T08:33:10;15.80;99.90
18321;DHT22;54904;54.350;18.664;2022-09-25T08:35:38;15.90;99.90
18321;DHT22;54904;54.350;18.664;2022-09-25T08:38:06;15.90;99.90
18321;DHT22;54904;54.350;18.664;2022-09-25T08:40:33;15.80;99.90
18321;DHT22;54904;54.350;18.664;2022-09-25T08:43:03;15.80;99.90
18321;DHT22;54904;54.350;18.664;2022-09-25T08:45:36;15.80;99.90
18321;DHT22;54904;54.350;18.664;2022-09-25T08:48:25;15.80;99.90
18321;DHT22;54904;54.350;18.664;2022-09-25T08:51:12;15.80;99.90
18321;DHT22;54904;54.350;18.664;2022-09-25T08:53:40;15.80;99.90
18321;DHT22;54904;54.350;18.664;2022-09-25T08:56:11;15.80;99.90
18321;DHT22;54904;54.350;18.664;2022-09-25T08:58:45;15.80;99.90
18321;DHT22;54904;54.350;18.664;2022-09-25T09:01:19;15.80;99.90
18321;DHT22;54904;54.350;18.664;2022-09-25T09:03:51;15.90;99.90
18321;DHT22;54904;54.350;18.664;2022-09-25T09:06:21;15.90;99.90
18321;DHT22;54904;54.350;18.664;2022-09-25T09:08:53;16.00;99.90
18321;DHT22;54904;54.350;18.664;2022-09-25T09:11:23;16.00;99.90
18321;DHT22;54904;54.350;18.664;2022-09-25T09:13:55;16.10;99.90
18321;DHT22;54904;54.350;18.664;2022-09-25T09:16:31;16.10;99.90
18321;DHT22;54904;54.350;18.664;2022-09-25T09:19:00;16.10;99.90
18321;DHT22;54904;54.350;18.664;2022-09-25T09:21:33;16.10;99.90
18321;DHT22;54904;54.350;18.664;2022-09-25T09:24:06;16.10;99.90
18321;DHT22;54904;54.350;18.664;2022-09-25T09:26:45;16.20;99.90
18321;DHT22;54904;54.350;18.664;2022-09-25T09:29:27;16.20;99.90
18321;DHT22;54904;54.350;18.664;2022-09-25T09:32:11;16.40;99.90
18321;DHT22;54904;54.350;18.664;2022-09-25T09:34:55;16.40;99.90
18321;DHT22;54904;54.350;18.664;2022-09-25T09:37:30;16.40;99.90
18321;DHT22;54904;54.350;18.664;2022-09-25T09:40:17;16.50;99.90
18321;DHT22;54904;54.350;18.664;2022-09-25T09:42:53;16.50;99.80
18321;DHT22;54904;54.350;18.664;2022-09-25T09:45:29;16.60;99.60
18321;DHT22;54904;54.350;18.664;2022-09-25T09:48:05;16.70;99.40
18321;DHT22;54904;54.350;18.664;2022-09-25T09:50:40;16.80;99.10
18321;DHT22;54904;54.350;18.664;2022-09-25T09:53:12;16.80;98.60
18321;DHT22;54904;54.350;18.664;2022-09-25T09:55:49;16.90;98.40
18321;DHT22;54904;54.350;18.664;2022-09-25T09:58:20;16.90;98.30
18321;DHT22;54904;54.350;18.664;2022-09-25T10:00:49;17.00;98.20
18321;DHT22;54904;54.350;18.664;2022-09-25T10:03:19;17.10;98.10
18321;DHT22;54904;54.350;18.664;2022-09-25T10:05:49;17.20;97.80
18321;DHT22;54904;54.350;18.664;2022-09-25T10:08:16;17.20;97.70
18321;DHT22;54904;54.350;18.664;2022-09-25T10:10:45;17.10;97.60
18321;DHT22;54904;54.350;18.664;2022-09-25T10:13:16;17.20;97.50
18321;DHT22;54904;54.350;18.664;2022-09-25T10:15:48;17.30;97.00
18321;DHT22;54904;54.350;18.664;2022-09-25T10:18:20;17.30;96.80
18321;DHT22;54904;54.350;18.664;2022-09-25T10:20:52;17.40;96.60
18321;DHT22;54904;54.350;18.664;2022-09-25T10:23:34;17.40;96.20
18321;DHT22;54904;54.350;18.664;2022-09-25T10:26:10;17.40;96.10
18321;DHT22;54904;54.350;18.664;2022-09-25T10:28:48;17.40;96.10
18321;DHT22;54904;54.350;18.664;2022-09-25T10:31:16;17.50;96.00
18321;DHT22;54904;54.350;18.664;2022-09-25T10:33:57;17.80;96.00
18321;DHT22;54904;54.350;18.664;2022-09-25T10:36:46;18.10;95.40
18321;DHT22;54904;54.350;18.664;2022-09-25T10:39:27;18.30;94.80
18321;DHT22;54904;54.350;18.664;2022-09-25T10:41:55;18.40;94.60
18321;DHT22;54904;54.350;18.664;2022-09-25T10:44:28;18.40;94.60
18321;DHT22;54904;54.350;18.664;2022-09-25T10:47:30;18.40;94.20
18321;DHT22;54904;54.350;18.664;2022-09-25T10:50:19;18.40;94.10
18321;DHT22;54904;54.350;18.664;2022-09-25T10:52:48;18.40;94.10
18321;DHT22;54904;54.350;18.664;2022-09-25T10:55:22;18.50;93.80
18321;DHT22;54904;54.350;18.664;2022-09-25T10:58:04;18.90;93.60
18321;DHT22;54904;54.350;18.664;2022-09-25T11:00:40;19.70;93.10
18321;DHT22;54904;54.350;18.664;2022-09-25T11:03:17;21.00;92.20
18321;DHT22;54904;54.350;18.664;2022-09-25T11:05:51;22.20;90.40
18321;DHT22;54904;54.350;18.664;2022-09-25T11:08:21;23.10;87.20
18321;DHT22;54904;54.350;18.664;2022-09-25T11:10:51;24.30;84.20
18321;DHT22;54904;54.350;18.664;2022-09-25T11:13:23;25.40;81.30
18321;DHT22;54904;54.350;18.664;2022-09-25T11:15:59;26.40;75.60
18321;DHT22;54904;54.350;18.664;2022-09-25T11:18:44;26.90;70.70
18321;DHT22;54904;54.350;18.664;2022-09-25T11:21:26;27.50;68.90
18321;DHT22;54904;54.350;18.664;2022-09-25T11:24:05;27.30;66.30
18321;DHT22;54904;54.350;18.664;2022-09-25T11:26:37;27.20;65.20
18321;DHT22;54904;54.350;18.664;2022-09-25T11:29:11;27.20;64.10
18321;DHT22;54904;54.350;18.664;2022-09-25T11:31:44;27.00;64.30
18321;DHT22;54904;54.350;18.664;2022-09-25T11:34:22;27.60;62.80
18321;DHT22;54904;54.350;18.664;2022-09-25T11:36:55;28.30;61.50
18321;DHT22;54904;54.350;18.664;2022-09-25T11:39:31;29.00;59.20
18321;DHT22;54904;54.350;18.664;2022-09-25T11:42:26;29.10;57.80
18321;DHT22;54904;54.350;18.664;2022-09-25T11:45:01;28.30;57.70
18321;DHT22;54904;54.350;18.664;2022-09-25T11:47:39;27.50;58.30
18321;DHT22;54904;54.350;18.664;2022-09-25T11:50:11;27.70;58.40
18321;DHT22;54904;54.350;18.664;2022-09-25T11:52:53;28.40;58.20
18321;DHT22;54904;54.350;18.664;2022-09-25T11:55:56;29.20;56.80
18321;DHT22;54904;54.350;18.664;2022-09-25T12:01:34;30.60;54.70
18321;DHT22;54904;54.350;18.664;2022-09-25T12:04:27;31.30;54.10
18321;DHT22;54904;54.350;18.664;2022-09-25T12:07:08;31.70;53.00
18321;DHT22;54904;54.350;18.664;2022-09-25T12:09:52;32.20;52.50
18321;DHT22;54904;54.350;18.664;2022-09-25T12:12:30;32.50;50.10
18321;DHT22;54904;54.350;18.664;2022-09-25T12:15:04;32.30;48.80
18321;DHT22;54904;54.350;18.664;2022-09-25T12:17:40;31.70;49.60
18321;DHT22;54904;54.350;18.664;2022-09-25T12:20:16;31.80;49.60
18321;DHT22;54904;54.350;18.664;2022-09-25T12:22:51;32.20;49.40
18321;DHT22;54904;54.350;18.664;2022-09-25T12:25:40;32.60;46.90
18321;DHT22;54904;54.350;18.664;2022-09-25T12:28:19;32.80;45.70
18321;DHT22;54904;54.350;18.664;2022-09-25T12:30:56;33.00;45.70
18321;DHT22;54904;54.350;18.664;2022-09-25T12:33:32;33.10;44.00
18321;DHT22;54904;54.350;18.664;2022-09-25T12:36:04;33.10;42.60
18321;DHT22;54904;54.350;18.664;2022-09-25T12:38:41;33.20;41.90
18321;DHT22;54904;54.350;18.664;2022-09-25T12:41:16;33.40;41.30
18321;DHT22;54904;54.350;18.664;2022-09-25T12:43:48;33.60;41.60
18321;DHT22;54904;54.350;18.664;2022-09-25T12:46:23;33.80;41.00
18321;DHT22;54904;54.350;18.664;2022-09-25T12:48:55;33.90;41.30
18321;DHT22;54904;54.350;18.664;2022-09-25T12:51:28;34.20;40.90
18321;DHT22;54904;54.350;18.664;2022-09-25T12:54:02;34.20;40.70
18321;DHT22;54904;54.350;18.664;2022-09-25T12:56:37;34.30;40.30
18321;DHT22;54904;54.350;18.664;2022-09-25T12:59:11;34.30;38.90
18321;DHT22;54904;54.350;18.664;2022-09-25T13:01:46;33.90;36.50
18321;DHT22;54904;54.350;18.664;2022-09-25T13:04:31;33.20;36.00
18321;DHT22;54904;54.350;18.664;2022-09-25T13:07:08;32.50;37.20
18321;DHT22;54904;54.350;18.664;2022-09-25T13:09:40;31.30;37.60
18321;DHT22;54904;54.350;18.664;2022-09-25T13:12:16;29.80;38.60
18321;DHT22;54904;54.350;18.664;2022-09-25T13:14:48;28.30;40.40
18321;DHT22;54904;54.350;18.664;2022-09-25T13:17:19;27.00;42.60
18321;DHT22;54904;54.350;18.664;2022-09-25T13:19:46;26.10;43.80
18321;DHT22;54904;54.350;18.664;2022-09-25T13:22:18;25.50;44.90
18321;DHT22;54904;54.350;18.664;2022-09-25T13:24:49;25.10;46.20
18321;DHT22;54904;54.350;18.664;2022-09-25T13:27:20;24.60;47.10
18321;DHT22;54904;54.350;18.664;2022-09-25T13:29:58;24.20;47.60
18321;DHT22;54904;54.350;18.664;2022-09-25T13:32:27;23.90;48.10
18321;DHT22;54904;54.350;18.664;2022-09-25T13:35:01;23.60;48.90
18321;DHT22;54904;54.350;18.664;2022-09-25T13:37:31;23.30;48.60
18321;DHT22;54904;54.350;18.664;2022-09-25T13:40:00;23.00;49.10
18321;DHT22;54904;54.350;18.664;2022-09-25T13:42:46;22.70;49.60
18321;DHT22;54904;54.350;18.664;2022-09-25T13:45:29;22.40;50.10
18321;DHT22;54904;54.350;18.664;2022-09-25T13:48:05;22.30;50.50
18321;DHT22;54904;54.350;18.664;2022-09-25T13:50:36;22.20;50.80
18321;DHT22;54904;54.350;18.664;2022-09-25T13:53:25;22.00;51.10
18321;DHT22;54904;54.350;18.664;2022-09-25T13:56:13;21.90;51.50
18321;DHT22;54904;54.350;18.664;2022-09-25T13:59:18;21.70;52.00
18321;DHT22;54904;54.350;18.664;2022-09-25T14:01:47;21.70;52.20
18321;DHT22;54904;54.350;18.664;2022-09-25T14:04:22;21.60;52.60
18321;DHT22;54904;54.350;18.664;2022-09-25T14:06:53;21.50;52.90
18321;DHT22;54904;54.350;18.664;2022-09-25T14:09:26;21.30;52.90
18321;DHT22;54904;54.350;18.664;2022-09-25T14:12:04;21.10;52.80
18321;DHT22;54904;54.350;18.664;2022-09-25T14:14:39;21.10;52.90
18321;DHT22;54904;54.350;18.664;2022-09-25T14:17:13;21.00;53.10
18321;DHT22;54904;54.350;18.664;2022-09-25T14:19:43;20.80;53.10
18321;DHT22;54904;54.350;18.664;2022-09-25T14:22:19;20.70;53.30
18321;DHT22;54904;54.350;18.664;2022-09-25T14:24:47;20.70;53.50
18321;DHT22;54904;54.350;18.664;2022-09-25T14:27:20;20.60;53.70
18321;DHT22;54904;54.350;18.664;2022-09-25T14:29:50;20.60;54.10
18321;DHT22;54904;54.350;18.664;2022-09-25T14:32:29;20.50;54.90
18321;DHT22;54904;54.350;18.664;2022-09-25T14:38:15;20.50;55.20
18321;DHT22;54904;54.350;18.664;2022-09-25T14:40:55;20.40;55.60
18321;DHT22;54904;54.350;18.664;2022-09-25T14:43:48;20.30;55.80
18321;DHT22;54904;54.350;18.664;2022-09-25T14:46:21;20.30;56.30
18321;DHT22;54904;54.350;18.664;2022-09-25T14:48:51;20.20;56.80
18321;DHT22;54904;54.350;18.664;2022-09-25T14:51:21;20.20;56.90
18321;DHT22;54904;54.350;18.664;2022-09-25T14:53:53;20.20;57.50
18321;DHT22;54904;54.350;18.664;2022-09-25T14:56:21;20.10;57.90
18321;DHT22;54904;54.350;18.664;2022-09-25T14:58:51;20.00;58.20
18321;DHT22;54904;54.350;18.664;2022-09-25T15:01:24;20.00;58.60
18321;DHT22;54904;54.350;18.664;2022-09-25T15:03:53;19.90;58.80
18321;DHT22;54904;54.350;18.664;2022-09-25T15:06:25;19.90;58.90
18321;DHT22;54904;54.350;18.664;2022-09-25T15:08:54;19.90;59.00
18321;DHT22;54904;54.350;18.664;2022-09-25T15:11:23;19.80;59.20
18321;DHT22;54904;54.350;18.664;2022-09-25T15:14:07;19.80;59.60
18321;DHT22;54904;54.350;18.664;2022-09-25T15:16:36;19.70;60.00
18321;DHT22;54904;54.350;18.664;2022-09-25T15:19:25;19.80;60.40
18321;DHT22;54904;54.350;18.664;2022-09-25T15:21:53;19.70;60.80
18321;DHT22;54904;54.350;18.664;2022-09-25T15:24:23;19.70;61.00
18321;DHT22;54904;54.350;18.664;2022-09-25T15:26:55;19.60;61.50
18321;DHT22;54904;54.350;18.664;2022-09-25T15:29:29;19.60;62.30
18321;DHT22;54904;54.350;18.664;2022-09-25T15:31:58;19.50;62.70
18321;DHT22;54904;54.350;18.664;2022-09-25T15:34:26;19.50;63.10
18321;DHT22;54904;54.350;18.664;2022-09-25T15:37:07;19.50;63.80
18321;DHT22;54904;54.350;18.664;2022-09-25T15:39:41;19.40;64.20
18321;DHT22;54904;54.350;18.664;2022-09-25T15:42:11;19.40;64.60
18321;DHT22;54904;54.350;18.664;2022-09-25T15:44:38;19.30;64.90
18321;DHT22;54904;54.350;18.664;2022-09-25T15:50:16;19.30;65.00
18321;DHT22;54904;54.350;18.664;2022-09-25T15:52:47;19.30;65.40
18321;DHT22;54904;54.350;18.664;2022-09-25T15:55:16;19.20;65.50
18321;DHT22;54904;54.350;18.664;2022-09-25T15:57:43;19.30;65.90